Elmwood Park, NJ (07407)

3:44 AM EST on January 27, 2015 (GMT -0500)
Residential | Change Station
CLOSE
Current Station
Personal Weather Station
Location: Saddle Brook, NJ
Elevation: 59 ft
Nearby Weather Stations
Active Advisory: Blizzard Warning Active Notice: Public Information Statement

Elev 59 ft 40.91 °N, 74.10 °W | Updated 3 seconds ago

Snow
Snow
20.3 °F
Feels Like 12 °F
N
6.0
Wind Variable Wind from ENE
Gusts 14.5 mph

Today
High -- | Low -- °F
--% Chance of Precip.
Yesterday
High -- | Low -- °F
Precip. -- in
7:11 AM 5:07 PM
First Quarter, 52% visible
Pressure 29.68 in
Visibility 1.0 miles
Clouds
Windchill 12 °F
Dew Point 17 °F
Humidity 86%
Rainfall 0.00 in
Snow Depth Not available.
UV Not available.
Pollen .10 out of 12
Air Quality Not available.
Flu Activity Not available.
SPECI KTEB 270832Z 36011KT 1SM R06/P6000FT SN VV016 M06/M09 A2968 RMK AO2 P0001

More Conditions Fewer Conditions

Pressure 29.68 in
Visibility 1.0 miles
Clouds
Windchill 12 °F
Dew Point 17 °F
Humidity 86%
Rainfall 0.00 in
Snow Depth Not available.
UV Not available.
Pollen .10 out of 12
Air Quality Not available.
Flu Activity Not available.
SPECI KTEB 270832Z 36011KT 1SM R06/P6000FT SN VV016 M06/M09 A2968 RMK AO2 P0001

More Conditions Fewer Conditions

10-Day Weather Forecast

Almanac

Astronomy

Jan. 27, 2015 Rise Set
Actual Time
Civil Twilight
Nautical Twilight
Astronomical Twilight
Moon
Length of Visible Light
Length of Day
Tomorrow will be .
, % of the Moon is Illuminated

Today's Extremes

State Highs State Lows

Community

WunderPhotos

Upload Photos

1,790,555 photos uploaded!

WunderBlogs® & News

Nearby

Air Quality

  Air Quality AQ Index Pollutant
Not available.

Snow Depth

Station Depth Elevation

Earthquake Activity

City Distance Mag. Time & Date
Minimum magnitude displayed is 2.5.

Coastal Water Temperatures

Place Temperature

Nearby Weather Stations